createdAt,value
2019-02-19T00:01:33.804Z,67.50
2019-02-19T00:04:02.284Z,67.40
2019-02-19T00:06:30.799Z,67.20
2019-02-19T00:08:59.281Z,67.20
2019-02-19T00:11:27.844Z,67.30
2019-02-19T00:13:56.423Z,67.20
2019-02-19T00:16:24.902Z,67.10
2019-02-19T00:18:53.176Z,67.00
2019-02-19T00:21:21.554Z,66.80
2019-02-19T00:23:51.059Z,66.30
2019-02-19T00:26:19.448Z,65.90
2019-02-19T00:28:48.356Z,65.70
2019-02-19T00:31:16.629Z,65.30
2019-02-19T00:33:46.563Z,65.10
2019-02-19T00:36:14.878Z,65.00
2019-02-19T00:38:43.307Z,65.70
2019-02-19T00:41:14.209Z,64.80
2019-02-19T00:43:42.520Z,64.50
2019-02-19T00:46:10.932Z,64.40
2019-02-19T00:48:39.279Z,64.40
2019-02-19T00:51:07.587Z,64.50
2019-02-19T00:53:45.269Z,64.10
2019-02-19T00:56:13.629Z,64.10
2019-02-19T00:58:41.910Z,64.10
2019-02-19T01:01:10.221Z,64.30
2019-02-19T01:03:38.603Z,64.60
2019-02-19T01:06:07.014Z,64.50
2019-02-19T01:08:35.434Z,64.60
2019-02-19T01:11:03.956Z,64.60
2019-02-19T01:13:32.371Z,64.30
2019-02-19T01:16:00.721Z,64.40
2019-02-19T01:18:29.063Z,64.30
2019-02-19T01:20:57.340Z,64.30
2019-02-19T01:23:25.625Z,64.50
2019-02-19T01:25:54.080Z,64.60
2019-02-19T01:28:22.354Z,64.30
2019-02-19T01:30:51.236Z,64.40
2019-02-19T01:33:19.545Z,64.60
2019-02-19T01:35:47.819Z,64.70
2019-02-19T01:38:16.092Z,64.80
2019-02-19T01:40:44.405Z,64.90
2019-02-19T01:43:12.679Z,65.50
2019-02-19T01:45:40.965Z,65.20
2019-02-19T01:48:09.387Z,65.10
2019-02-19T01:50:37.665Z,65.50
2019-02-19T01:53:06.029Z,65.50
2019-02-19T01:55:38.895Z,65.50
2019-02-19T01:58:07.184Z,65.60
2019-02-19T02:00:35.524Z,65.90
2019-02-19T02:03:03.835Z,66.80
2019-02-19T02:05:32.115Z,66.00
2019-02-19T02:08:00.418Z,66.00
2019-02-19T02:10:28.791Z,65.90
2019-02-19T02:12:57.067Z,65.80
2019-02-19T02:15:25.435Z,66.10
2019-02-19T02:17:53.867Z,66.40
2019-02-19T02:20:22.213Z,66.50
2019-02-19T02:22:50.563Z,67.70
2019-02-19T02:25:18.879Z,67.20
2019-02-19T02:27:47.231Z,67.30
2019-02-19T02:30:15.509Z,66.90
2019-02-19T02:32:44.275Z,67.00
2019-02-19T02:35:12.571Z,66.90
2019-02-19T02:38:15.981Z,66.70
2019-02-19T02:40:31.834Z,66.50
2019-02-19T02:43:00.124Z,66.30
2019-02-19T02:45:28.498Z,65.90
2019-02-19T02:47:56.860Z,65.50
2019-02-19T02:50:25.205Z,65.50
2019-02-19T02:52:53.507Z,65.40
2019-02-19T02:55:21.787Z,66.30
2019-02-19T02:57:50.136Z,66.80
2019-02-19T03:00:18.528Z,67.00
2019-02-19T03:02:46.883Z,67.50
2019-02-19T03:05:15.239Z,68.00
2019-02-19T03:07:51.184Z,68.60
2019-02-19T03:10:19.533Z,68.40
2019-02-19T03:12:47.903Z,68.60
2019-02-19T03:15:16.575Z,70.10
2019-02-19T03:17:44.857Z,69.40
2019-02-19T03:20:13.203Z,69.00
2019-02-19T03:22:41.588Z,68.90
2019-02-19T03:25:09.857Z,68.60
2019-02-19T03:27:38.131Z,68.90
2019-02-19T03:30:09.385Z,69.40
2019-02-19T03:32:37.748Z,69.80
2019-02-19T03:35:06.548Z,70.20
2019-02-19T03:37:34.860Z,70.70
2019-02-19T03:40:03.213Z,70.70
2019-02-19T03:42:31.559Z,70.60
2019-02-19T03:45:03.713Z,71.00
2019-02-19T03:47:32.024Z,70.20
2019-02-19T03:50:00.298Z,69.50
2019-02-19T03:52:28.691Z,69.10
2019-02-19T03:54:56.970Z,69.40
2019-02-19T03:57:25.307Z,69.80
2019-02-19T03:59:53.635Z,69.70
2019-02-19T04:02:21.993Z,70.70
2019-02-19T04:04:50.360Z,70.50
2019-02-19T04:07:18.739Z,71.00
2019-02-19T04:09:47.019Z,71.40
2019-02-19T04:12:15.375Z,72.00
2019-02-19T04:14:43.695Z,72.30
2019-02-19T04:17:11.970Z,72.20
2019-02-19T04:19:40.239Z,71.80
2019-02-19T04:22:08.609Z,71.40
2019-02-19T04:24:36.914Z,71.10
2019-02-19T04:27:05.268Z,71.20
2019-02-19T04:29:33.599Z,71.70
2019-02-19T04:32:01.958Z,72.00
2019-02-19T04:34:30.302Z,72.20
2019-02-19T04:36:58.895Z,72.20
2019-02-19T04:39:27.184Z,72.20
2019-02-19T04:41:55.521Z,72.30
2019-02-19T04:44:23.839Z,72.10
2019-02-19T04:46:52.128Z,72.00
2019-02-19T04:49:23.393Z,72.30
2019-02-19T04:51:51.863Z,71.90
2019-02-19T04:54:20.162Z,71.90
2019-02-19T04:56:48.510Z,71.80
2019-02-19T04:59:16.893Z,72.20
2019-02-19T05:01:45.254Z,72.00
2019-02-19T05:04:13.533Z,72.70
2019-02-19T05:06:41.902Z,73.20
2019-02-19T05:09:10.176Z,73.00
2019-02-19T05:11:38.523Z,72.60
2019-02-19T05:14:06.837Z,72.50
2019-02-19T05:16:40.678Z,73.10
2019-02-19T05:19:05.195Z,72.40
2019-02-19T05:21:33.496Z,72.50
2019-02-19T05:24:01.778Z,72.60
2019-02-19T05:26:30.050Z,73.50
2019-02-19T05:28:58.435Z,73.70
2019-02-19T05:31:26.710Z,73.70
2019-02-19T05:33:54.988Z,73.40
2019-02-19T05:36:23.390Z,73.30
2019-02-19T05:38:52.090Z,73.30
2019-02-19T05:41:20.365Z,73.00
2019-02-19T05:43:48.663Z,73.00
2019-02-19T05:46:16.965Z,72.90
2019-02-19T05:48:45.343Z,73.20
2019-02-19T05:51:13.657Z,73.50
2019-02-19T05:53:41.949Z,73.90
2019-02-19T05:56:10.372Z,73.80
2019-02-19T05:58:38.706Z,73.90
2019-02-19T06:01:07.044Z,73.90
2019-02-19T06:03:35.319Z,74.10
2019-02-19T06:06:03.651Z,75.60
2019-02-19T06:08:31.996Z,75.30
2019-02-19T06:11:00.264Z,75.30
2019-02-19T06:13:28.577Z,75.10
2019-02-19T06:15:56.919Z,74.70
2019-02-19T06:18:25.214Z,74.50
2019-02-19T06:20:53.627Z,74.70
2019-02-19T06:23:21.907Z,74.50
2019-02-19T06:25:50.228Z,74.50
2019-02-19T06:28:18.620Z,74.20
2019-02-19T06:30:46.996Z,73.80
2019-02-19T06:33:15.267Z,73.50
2019-02-19T06:35:43.590Z,73.60
2019-02-19T06:38:11.919Z,73.60
2019-02-19T06:40:41.129Z,73.80
2019-02-19T06:43:09.519Z,73.60
2019-02-19T06:45:37.792Z,73.30
2019-02-19T06:48:06.167Z,73.20
2019-02-19T06:50:34.474Z,73.20
2019-02-19T06:53:02.937Z,72.80
2019-02-19T06:55:31.352Z,72.80
2019-02-19T06:57:59.899Z,73.50
2019-02-19T07:00:28.172Z,72.70
2019-02-19T07:03:06.756Z,72.70
2019-02-19T07:05:35.193Z,72.20
2019-02-19T07:08:03.540Z,72.00
2019-02-19T07:10:31.873Z,71.80
2019-02-19T07:13:00.229Z,71.90
2019-02-19T07:15:28.575Z,71.40
2019-02-19T07:17:56.903Z,71.20
2019-02-19T07:20:25.242Z,70.30
2019-02-19T07:22:53.532Z,69.60
2019-02-19T07:25:21.851Z,69.00
2019-02-19T07:27:50.216Z,68.50
2019-02-19T07:30:18.567Z,68.00
2019-02-19T07:32:46.957Z,67.60
2019-02-19T07:35:15.422Z,66.90
2019-02-19T07:37:43.855Z,66.60
2019-02-19T07:40:12.301Z,66.10
2019-02-19T07:42:40.719Z,65.60
2019-02-19T07:45:13.160Z,64.80
2019-02-19T07:47:41.510Z,64.20
2019-02-19T07:50:10.944Z,63.90
2019-02-19T07:52:39.221Z,63.70
2019-02-19T07:55:09.638Z,62.90
2019-02-19T07:57:37.982Z,61.60
2019-02-19T08:00:09.732Z,60.60
2019-02-19T08:02:38.133Z,60.00
2019-02-19T08:05:06.563Z,59.60
2019-02-19T08:07:34.905Z,58.80
2019-02-19T08:10:04.074Z,57.20
2019-02-19T08:12:32.464Z,55.20
2019-02-19T08:15:00.801Z,53.20
2019-02-19T08:17:33.434Z,52.50
2019-02-19T08:20:15.400Z,51.70
2019-02-19T08:22:43.548Z,52.50
2019-02-19T08:25:11.900Z,54.00
2019-02-19T08:27:41.924Z,54.50
2019-02-19T08:30:11.217Z,55.80
2019-02-19T08:32:50.572Z,56.30
2019-02-19T08:35:14.659Z,55.70
2019-02-19T08:37:52.327Z,55.40
2019-02-19T08:40:20.643Z,55.50
2019-02-19T08:42:48.934Z,54.90
2019-02-19T08:45:17.395Z,53.80
2019-02-19T08:47:50.104Z,52.50
2019-02-19T08:50:18.443Z,51.00
2019-02-19T08:52:46.728Z,49.00
2019-02-19T08:55:15.161Z,48.10
2019-02-19T08:57:43.527Z,46.20
2019-02-19T09:00:11.976Z,45.40
2019-02-19T09:02:40.322Z,43.50
2019-02-19T09:05:08.703Z,43.30
2019-02-19T09:07:39.735Z,39.30
2019-02-19T09:10:10.557Z,40.00
2019-02-19T09:12:38.904Z,40.60
2019-02-19T09:15:11.538Z,40.30
2019-02-19T09:17:39.966Z,40.50
2019-02-19T09:20:09.447Z,40.20
2019-02-19T09:22:37.745Z,39.90
2019-02-19T09:25:08.627Z,40.80
2019-02-19T09:27:37.210Z,41.30
2019-02-19T09:30:09.115Z,40.40
2019-02-19T09:32:37.765Z,40.40
2019-02-19T09:35:07.292Z,40.90
2019-02-19T09:37:35.854Z,40.10
2019-02-19T09:40:06.378Z,39.60
2019-02-19T09:42:34.871Z,40.40
2019-02-19T09:45:03.674Z,39.80
2019-02-19T09:47:32.737Z,40.50
2019-02-19T09:50:01.307Z,40.60
2019-02-19T09:52:29.861Z,38.50
2019-02-19T09:54:58.388Z,39.80
2019-02-19T09:57:26.887Z,39.30
2019-02-19T09:59:55.379Z,38.10
2019-02-19T10:02:24.028Z,37.70
2019-02-19T10:04:52.600Z,37.70
2019-02-19T10:07:21.156Z,37.30
2019-02-19T10:09:49.687Z,36.80
2019-02-19T10:12:18.257Z,37.40
2019-02-19T10:14:46.854Z,36.90
2019-02-19T10:17:15.390Z,36.60
2019-02-19T10:19:43.966Z,37.30
2019-02-19T10:22:12.540Z,37.90
2019-02-19T10:24:41.068Z,38.30
2019-02-19T10:27:09.660Z,37.60
2019-02-19T10:29:38.227Z,37.10
2019-02-19T10:32:06.837Z,37.60
2019-02-19T10:34:35.328Z,37.10
2019-02-19T10:37:03.831Z,38.70
2019-02-19T10:39:32.449Z,38.40
2019-02-19T10:42:01.040Z,38.20
2019-02-19T10:44:29.603Z,37.00
2019-02-19T10:46:58.202Z,38.50
2019-02-19T10:49:27.094Z,38.80
2019-02-19T10:51:55.655Z,37.50
2019-02-19T10:54:24.182Z,38.00
2019-02-19T10:56:52.668Z,38.40
2019-02-19T10:59:21.159Z,39.10
2019-02-19T11:01:49.808Z,38.90
2019-02-19T11:04:18.380Z,39.80
2019-02-19T11:06:46.864Z,38.70
2019-02-19T11:09:15.476Z,38.10
2019-02-19T11:11:43.975Z,38.80
2019-02-19T11:14:12.530Z,40.60
2019-02-19T11:16:46.691Z,40.00
2019-02-19T11:19:16.670Z,40.50
2019-02-19T11:21:45.229Z,40.70
2019-02-19T11:24:13.813Z,41.60
2019-02-19T11:26:42.359Z,42.30
2019-02-19T11:29:10.873Z,42.40
2019-02-19T11:31:39.538Z,42.70
2019-02-19T11:34:08.137Z,42.70
2019-02-19T11:36:36.634Z,42.20
2019-02-19T11:39:05.280Z,42.60
2019-02-19T11:41:33.762Z,42.80
2019-02-19T11:44:02.276Z,43.00
2019-02-19T11:46:30.899Z,42.50
2019-02-19T11:48:59.179Z,42.20
2019-02-19T11:51:27.461Z,42.40
2019-02-19T11:53:55.863Z,43.10
2019-02-19T11:56:24.190Z,43.90
2019-02-19T11:58:52.474Z,42.60
2019-02-19T12:01:20.943Z,43.30
2019-02-19T12:03:49.247Z,43.50
2019-02-19T12:06:17.633Z,43.20
2019-02-19T12:08:46.002Z,43.80
2019-02-19T12:11:14.299Z,42.30
2019-02-19T12:13:42.679Z,41.50
2019-02-19T12:16:11.115Z,41.70
2019-02-19T12:18:45.840Z,39.90
2019-02-19T12:21:10.659Z,39.00
2019-02-19T12:23:38.664Z,39.80
2019-02-19T12:26:07.219Z,41.30
2019-02-19T12:28:37.315Z,42.60
2019-02-19T12:31:05.920Z,40.80
2019-02-19T12:33:34.481Z,41.10
2019-02-19T12:36:03.041Z,40.20
2019-02-19T12:38:31.571Z,40.00
2019-02-19T12:41:00.134Z,40.30
2019-02-19T12:43:28.705Z,40.40
2019-02-19T12:45:57.308Z,42.10
2019-02-19T12:48:25.795Z,42.00
2019-02-19T12:50:54.303Z,42.30
2019-02-19T12:53:23.963Z,41.90
2019-02-19T12:55:51.708Z,40.60
2019-02-19T12:58:20.271Z,39.10
2019-02-19T13:00:48.803Z,40.20
2019-02-19T13:03:17.367Z,40.00
2019-02-19T13:05:45.860Z,40.40
2019-02-19T13:08:14.386Z,41.10
2019-02-19T13:10:42.971Z,41.20
2019-02-19T13:13:11.568Z,40.00
2019-02-19T13:15:40.174Z,39.40
2019-02-19T13:18:08.736Z,39.50
2019-02-19T13:20:37.229Z,39.10
2019-02-19T13:23:05.951Z,39.10
2019-02-19T13:25:34.440Z,37.10
2019-02-19T13:28:02.937Z,36.60
2019-02-19T13:30:31.539Z,36.00
2019-02-19T13:33:00.050Z,37.90
2019-02-19T13:35:28.617Z,38.00
2019-02-19T13:37:57.173Z,38.90
2019-02-19T13:40:25.736Z,37.90
2019-02-19T13:42:54.144Z,38.10
2019-02-19T13:45:22.552Z,38.80
2019-02-19T13:47:50.965Z,39.20
2019-02-19T13:50:27.766Z,40.50
2019-02-19T13:52:57.714Z,39.70
2019-02-19T13:55:28.694Z,39.20
2019-02-19T13:57:57.559Z,39.10
2019-02-19T14:00:27.756Z,39.10
2019-02-19T14:02:56.052Z,39.70
2019-02-19T14:05:24.362Z,39.20
2019-02-19T14:07:52.648Z,39.70
2019-02-19T14:10:20.998Z,39.70
2019-02-19T14:12:49.531Z,39.00
2019-02-19T14:15:31.974Z,38.10
2019-02-19T14:18:01.249Z,37.90
2019-02-19T14:20:37.110Z,37.50
2019-02-19T14:23:23.473Z,37.60
2019-02-19T14:26:12.063Z,38.20
2019-02-19T14:28:54.363Z,38.90
2019-02-19T14:31:24.447Z,39.60
2019-02-19T14:34:10.811Z,38.20
2019-02-19T14:36:53.270Z,38.50
2019-02-19T14:39:39.971Z,39.00
2019-02-19T14:42:10.092Z,38.90
2019-02-19T14:44:56.247Z,40.90
2019-02-19T14:47:41.258Z,40.70
2019-02-19T14:50:23.521Z,41.20
2019-02-19T14:52:53.448Z,41.70
2019-02-19T14:55:23.474Z,41.20
2019-02-19T14:57:56.687Z,40.10
2019-02-19T15:00:26.640Z,39.70
2019-02-19T15:02:56.812Z,41.10
2019-02-19T15:05:36.052Z,41.20
2019-02-19T15:08:22.347Z,41.50
2019-02-19T15:10:58.235Z,41.70
2019-02-19T15:13:46.277Z,42.30
2019-02-19T15:16:16.308Z,42.00
2019-02-19T15:18:46.233Z,42.70
2019-02-19T15:21:22.364Z,43.80
2019-02-19T15:23:58.380Z,44.70
2019-02-19T15:26:46.705Z,44.90
2019-02-19T15:29:31.770Z,46.60
2019-02-19T15:32:01.797Z,47.60
2019-02-19T15:34:40.654Z,49.10
2019-02-19T15:37:10.919Z,50.50
2019-02-19T15:39:44.001Z,51.40
2019-02-19T15:42:13.975Z,52.00
2019-02-19T15:44:50.043Z,52.70
2019-02-19T15:47:22.661Z,53.10
2019-02-19T15:50:04.910Z,53.50
2019-02-19T15:52:47.292Z,53.80
2019-02-19T15:55:17.222Z,54.70
2019-02-19T15:57:47.215Z,55.20
2019-02-19T16:00:23.534Z,56.20
2019-02-19T16:02:59.480Z,55.60
2019-02-19T16:05:32.163Z,56.20
2019-02-19T16:08:10.920Z,56.60
2019-02-19T16:10:43.753Z,56.80
2019-02-19T16:13:19.578Z,57.10
2019-02-19T16:15:49.625Z,57.70
2019-02-19T16:18:25.541Z,57.90
2019-02-19T16:21:07.353Z,58.10
2019-02-19T16:23:37.358Z,58.70
2019-02-19T16:26:07.277Z,58.80
2019-02-19T16:28:46.229Z,59.20
2019-02-19T16:31:31.122Z,59.70
2019-02-19T16:34:16.120Z,60.20
2019-02-19T16:36:46.046Z,61.20
2019-02-19T16:39:32.525Z,61.50
2019-02-19T16:42:05.587Z,61.80
2019-02-19T16:44:38.052Z,62.20
2019-02-19T16:47:23.028Z,62.60
2019-02-19T16:49:56.229Z,63.20
2019-02-19T16:52:26.240Z,63.70
2019-02-19T16:54:56.243Z,63.80
2019-02-19T16:57:29.172Z,64.20
2019-02-19T16:59:59.171Z,64.50
2019-02-19T17:02:38.184Z,64.70
2019-02-19T17:05:13.900Z,64.80
2019-02-19T17:07:49.473Z,65.00
2019-02-19T17:10:19.452Z,65.10
2019-02-19T17:13:04.247Z,65.30
2019-02-19T17:15:50.553Z,65.40
2019-02-19T17:18:29.442Z,65.60
2019-02-19T17:21:02.404Z,65.90
2019-02-19T17:23:35.231Z,66.30
2019-02-19T17:26:08.422Z,66.60
2019-02-19T17:28:38.415Z,66.80
2019-02-19T17:31:11.419Z,66.80
2019-02-19T17:33:57.440Z,66.80
2019-02-19T17:36:27.426Z,66.80
2019-02-19T17:38:57.350Z,67.70
2019-02-19T17:41:36.694Z,67.30
2019-02-19T17:44:15.763Z,67.20
2019-02-19T17:47:01.928Z,67.30
2019-02-19T17:49:42.850Z,67.50
2019-02-19T17:52:12.832Z,67.80
2019-02-19T17:54:45.730Z,67.80
2019-02-19T17:57:21.711Z,68.00
2019-02-19T17:59:54.651Z,68.20
2019-02-19T18:02:24.645Z,68.30
2019-02-19T18:04:54.934Z,68.30
2019-02-19T18:10:30.219Z,68.80
2019-02-19T18:13:18.627Z,69.10
2019-02-19T18:15:51.804Z,69.20
2019-02-19T18:18:21.742Z,69.30
2019-02-19T18:20:50.101Z,69.40
2019-02-19T18:23:18.581Z,69.50
2019-02-19T18:25:46.921Z,69.50
2019-02-19T18:28:15.276Z,69.30
2019-02-19T18:30:43.695Z,69.30
2019-02-19T18:36:05.233Z,69.10
2019-02-19T18:38:33.583Z,68.90
2019-02-19T18:41:02.032Z,68.70
2019-02-19T18:43:31.434Z,68.90
2019-02-19T18:45:59.763Z,68.90
2019-02-19T18:48:33.732Z,69.00
2019-02-19T18:51:03.670Z,69.20
2019-02-19T18:53:32.016Z,69.10
2019-02-19T18:56:00.926Z,69.30
2019-02-19T18:58:29.359Z,69.40
2019-02-19T19:00:57.887Z,69.40
2019-02-19T19:03:26.298Z,69.50
2019-02-19T19:05:56.009Z,69.40
2019-02-19T19:08:29.354Z,69.60
2019-02-19T19:10:59.293Z,69.90
2019-02-19T19:13:29.120Z,69.80
2019-02-19T19:16:00.567Z,69.80
2019-02-19T19:18:34.096Z,69.70
2019-02-19T19:21:07.946Z,69.50
2019-02-19T19:23:32.500Z,69.50
2019-02-19T19:26:01.160Z,69.30
2019-02-19T19:28:32.289Z,69.50
2019-02-19T19:31:00.796Z,69.40
2019-02-19T19:33:29.712Z,69.50
2019-02-19T19:35:58.019Z,69.40
2019-02-19T19:38:26.515Z,69.30
2019-02-19T19:40:54.915Z,69.30
2019-02-19T19:43:23.277Z,69.80
2019-02-19T19:45:53.336Z,70.70
2019-02-19T19:48:22.061Z,70.30
2019-02-19T19:50:50.387Z,71.10
2019-02-19T19:53:18.820Z,71.50
2019-02-19T19:55:47.162Z,71.90
2019-02-19T19:58:15.660Z,72.10
2019-02-19T20:00:44.172Z,72.20
2019-02-19T20:03:12.560Z,72.60
2019-02-19T20:05:41.011Z,72.80
2019-02-19T20:08:09.589Z,72.90
2019-02-19T20:10:38.205Z,72.80
2019-02-19T20:13:06.811Z,72.70
2019-02-19T20:15:35.457Z,72.50
2019-02-19T20:18:04.044Z,72.00
2019-02-19T20:20:32.542Z,72.30
2019-02-19T20:23:00.956Z,72.90
2019-02-19T20:25:29.339Z,72.10
2019-02-19T20:27:57.688Z,72.40
2019-02-19T20:30:25.980Z,72.00
2019-02-19T20:32:54.400Z,72.20
2019-02-19T20:35:22.767Z,72.00
2019-02-19T20:38:10.908Z,71.90
2019-02-19T20:40:39.181Z,72.20
2019-02-19T20:43:14.238Z,72.20
2019-02-19T20:45:44.959Z,73.00
2019-02-19T20:48:13.340Z,74.10
2019-02-19T20:50:41.718Z,76.80
2019-02-19T20:53:13.052Z,77.50
2019-02-19T20:55:41.398Z,79.10
2019-02-19T20:58:09.779Z,80.90
2019-02-19T21:00:38.094Z,82.30
2019-02-19T21:03:06.515Z,83.60
2019-02-19T21:05:34.883Z,85.70
2019-02-19T21:08:03.242Z,86.30
2019-02-19T21:10:32.057Z,87.10
2019-02-19T21:13:00.540Z,88.10
2019-02-19T21:15:28.827Z,88.60
2019-02-19T21:17:57.356Z,88.80
2019-02-19T21:20:25.779Z,89.20
2019-02-19T21:22:54.088Z,88.70
2019-02-19T21:25:29.048Z,89.80
2019-02-19T21:27:52.536Z,89.80
2019-02-19T21:30:20.964Z,90.30
2019-02-19T21:32:49.337Z,90.10
2019-02-19T21:35:17.847Z,90.00
2019-02-19T21:37:46.275Z,90.00
2019-02-19T21:40:17.863Z,90.00
2019-02-19T21:42:46.287Z,90.00
2019-02-19T21:45:15.397Z,90.50
2019-02-19T21:47:46.684Z,90.80
2019-02-19T21:50:15.781Z,90.80
2019-02-19T21:52:44.472Z,90.70
2019-02-19T21:55:13.015Z,90.70
2019-02-19T21:57:41.330Z,90.80
2019-02-19T22:00:20.392Z,90.90
2019-02-19T22:02:50.880Z,90.80
2019-02-19T22:05:19.154Z,91.10
2019-02-19T22:07:47.503Z,91.10
2019-02-19T22:10:15.943Z,91.40
2019-02-19T22:12:44.462Z,91.40
2019-02-19T22:15:14.054Z,91.70
2019-02-19T22:17:42.454Z,91.40
2019-02-19T22:20:27.452Z,91.60
2019-02-19T22:22:55.771Z,91.60
2019-02-19T22:25:24.048Z,91.80
2019-02-19T22:27:52.344Z,91.70
2019-02-19T22:30:20.715Z,91.70
2019-02-19T22:32:49.074Z,91.50
2019-02-19T22:35:17.359Z,91.40
2019-02-19T22:37:45.771Z,91.50
2019-02-19T22:40:14.121Z,91.70
2019-02-19T22:42:42.475Z,92.00
2019-02-19T22:45:10.811Z,91.70
2019-02-19T22:47:39.093Z,91.90
2019-02-19T22:50:09.047Z,91.70
2019-02-19T22:52:37.447Z,91.80
2019-02-19T22:55:09.603Z,91.80
2019-02-19T22:57:37.884Z,91.90
2019-02-19T23:00:11.163Z,91.70
2019-02-19T23:02:39.511Z,91.70
2019-02-19T23:05:07.783Z,91.60
2019-02-19T23:07:36.109Z,91.50
2019-02-19T23:10:05.991Z,91.30
2019-02-19T23:12:34.270Z,91.10
2019-02-19T23:15:02.862Z,91.10
2019-02-19T23:17:31.220Z,90.90
2019-02-19T23:19:59.572Z,91.00
2019-02-19T23:22:28.133Z,91.00
2019-02-19T23:24:56.467Z,91.20
2019-02-19T23:27:24.788Z,91.10
2019-02-19T23:29:53.092Z,90.80
2019-02-19T23:32:21.389Z,90.90
2019-02-19T23:34:51.368Z,90.90
2019-02-19T23:37:19.766Z,91.50
2019-02-19T23:39:48.520Z,91.40
2019-02-19T23:42:16.807Z,91.40
2019-02-19T23:44:45.140Z,91.80
2019-02-19T23:47:13.527Z,91.50
2019-02-19T23:49:41.879Z,91.70
2019-02-19T23:52:10.199Z,91.50
2019-02-19T23:54:38.474Z,91.50
2019-02-19T23:57:06.820Z,91.60
2019-02-19T23:59:35.131Z,91.30
